• Join FlightAware (Why Join?)
  • Login
  • US Flag 
12:11AM EDT


 

Airport Tracker/Info


-or-


 

Live Flight TrackerFlight Track Log ✈ N709UW ✈ 16-Apr-2013 ✈ KCLT - KPHL

Flight Track Log - Related Links

Times and Time Zones

All times are in EDT time to prevent confusion due to time zone crossing. See the N709UW flight status page for this flight to view local times or setup timezone preferences in your user account.

Time Position Orientation Groundspeed Altitude Reporting Facility
EDT Latitude Longitude Course Direction KTS MPH feet Rate Location/Type
09:34AM 35.1886 -80.9358 72° East 161 185 1,800  Level Atlanta Center
09:34AM 35.1511 -80.9294 172° South 179 206 3,000 1,920 Climbing Atlanta Center
09:35AM 35.1039 -80.8781 138° Southeast 251 289 5,100 2,460 Climbing Atlanta Center
09:36AM 35.1000 -80.6345 90° East  Level FlightAware Approximate
09:36AM 35.0961 -80.8200 99° East 279 321 7,200  Level Atlanta Center
09:37AM 35.1916 -80.5723 29° Northeast  Level FlightAware Approximate
09:37AM 35.1078 -80.7942 61° Northeast 286 329 7,800  Level Atlanta Center
09:37AM 35.1378 -80.7369 57° Northeast 337 388 8,200 1,560 Climbing Atlanta Center
09:38AM 35.2826 -80.5077 30° Northeast  Level FlightAware Approximate
09:38AM 35.1811 -80.6514 58° Northeast 310 357 10,500  Level Atlanta Center
09:39AM 35.3443 -80.4252 72° East  Level FlightAware Approximate
09:39AM 35.2325 -80.5503 58° Northeast 317 365 13,000  Level Atlanta Center
09:40AM 35.2839 -80.4436 59° Northeast 346 398 15,400 1,860 Climbing Atlanta Center
09:43AM 35.4239 -80.1672 58° Northeast 402 463 19,600 1,800 Climbing Washington Center
09:44AM 35.4672 -80.0117 71° East 418 481 21,800 1,860 Climbing Washington Center
09:45AM 35.5017 -79.8656 74° East 429 494 23,400 1,620 Climbing Washington Center
09:46AM 35.5425 -79.7147 72° East 442 509 25,100 1,440 Climbing Washington Center
09:47AM 35.5808 -79.5736 71° East 465 535 26,300 1,440 Climbing Washington Center
09:48AM 35.6258 -79.4047 72° East 472 543 28,000 1,620 Climbing Washington Center
09:49AM 35.6906 -79.2669 60° Northeast 463 533 29,600 1,500 Climbing Washington Center
09:50AM 35.7839 -79.1536 45° Northeast 463 533 31,000 660 Climbing Washington Center
09:51AM 35.8906 -79.0739 31° Northeast 448 516 31,000  Level Washington Center
09:52AM 35.9994 -78.9911 32° Northeast 448 516 31,000  Level Washington Center
09:53AM 36.1058 -78.9136 30° Northeast 448 516 31,000  Level Washington Center
09:54AM 36.2125 -78.8331 31° Northeast 448 516 31,000  Level Washington Center
09:55AM 36.3208 -78.7525 31° Northeast 448 516 31,000  Level Washington Center
09:56AM 36.4272 -78.6717 31° Northeast 448 516 31,000  Level Washington Center
09:57AM 36.5336 -78.5958 30° Northeast 443 510 31,000  Level Washington Center
09:58AM 36.6422 -78.5119 32° Northeast 443 510 31,000  Level Washington Center
09:59AM 36.7483 -78.4278 32° Northeast 443 510 31,000  Level Washington Center
10:00AM 36.8567 -78.3486 30° Northeast 443 510 31,000  Level Washington Center
10:01AM 36.9628 -78.2642 32° Northeast 448 516 31,000  Level Washington Center
10:02AM 37.0606 -78.1894 31° Northeast 459 528 31,000  Level Washington Center
10:03AM 37.1772 -78.0994 32° Northeast 453 521 31,000  Level Washington Center
10:04AM 37.2853 -78.0194 30° Northeast 453 521 31,000  Level Washington Center
10:05AM 37.3911 -77.9339 33° Northeast 453 521 31,000  Level Washington Center
10:06AM 37.4969 -77.8533 31° Northeast 448 516 31,000  Level Washington Center
10:07AM 37.6008 -77.7622 35° Northeast 448 516 31,000  Level Washington Center
10:08AM 37.7047 -77.6706 35° Northeast 448 516 31,000  Level Washington Center
10:09AM 37.8064 -77.5789 35° Northeast 448 516 31,000  Level Washington Center
10:10AM 37.9061 -77.4842 37° Northeast 453 521 31,000  Level Washington Center
10:11AM 38.0097 -77.3917 35° Northeast 453 521 31,000  Level Washington Center
10:12AM 38.1111 -77.2939 37° Northeast 461 531 31,000  Level Washington Center
10:13AM 38.2042 -77.2089 36° Northeast 452 520 31,000  Level Washington Center
10:14AM 38.3158 -77.1108 35° Northeast 452 520 31,000  Level Washington Center
10:15AM 38.4150 -77.0119 38° Northeast 452 520 31,000  Level Washington Center
10:16AM 38.5183 -76.9183 35° Northeast 452 520 31,000 -1,140 Level Washington Center
10:17AM 38.6172 -76.8244 37° Northeast 452 520 28,800 -3,360 Descending Washington Center
10:18AM 38.7100 -76.7117 43° Northeast 457 526 24,400 -3,060 Descending Washington Center
10:19AM 38.7447 -76.5525 74° East 447 514 22,700 -2,040 Descending Washington Center
10:20AM 38.7750 -76.4039 75° East 432 497 20,400 -2,220 Descending Washington Center
10:21AM 38.8053 -76.2603 75° East 432 497 18,300 -2,160 Descending Washington Center
10:22AM 38.8328 -76.1381 74° East 406 467 16,100 -1,680 Descending Washington Center
10:23AM 38.8606 -76.0022 75° East 394 453 15,000 -1,080 Descending Washington Center
10:24AM 38.8900 -75.8769 73° East 377 434 14,000 -960 Descending Washington Center
10:25AM 39.0136 -75.7233 44° Northeast 348 400 12,400 -960 Descending FAA TRACON SMA TRACON (SMA)
10:26AM 39.0453 -75.6947 35° Northeast 347 399 12,100 -780 Descending FAA TRACON SMA TRACON (SMA)
10:26AM 39.0714 -75.6794 24° Northeast 340 391 11,900 -780 Descending FAA TRACON SMA TRACON (SMA)
10:26AM 39.1000 -75.6756 North 338 389 11,600 -900 Descending FAA TRACON SMA TRACON (SMA)
10:27AM 39.1344 -75.6714 North 336 387 11,300 -780 Descending FAA TRACON SMA TRACON (SMA)
10:27AM 39.1639 -75.6669 North 338 389 11,100 -780 Descending FAA TRACON SMA TRACON (SMA)
10:27AM 39.1933 -75.6650 North 336 387 10,800 -900 Descending FAA TRACON SMA TRACON (SMA)
10:28AM 39.2286 -75.6608 North 330 380 10,500 -780 Descending FAA TRACON SMA TRACON (SMA)
10:28AM 39.2544 -75.6578 North 304 350 10,300 -780 Descending FAA TRACON SMA TRACON (SMA)
10:28AM 39.2853 -75.6522 North 297 342 10,000 -600 Descending FAA TRACON SMA TRACON (SMA)
10:29AM 39.3064 -75.6325 36° Northeast 304 350 9,900 -780 Descending FAA TRACON SMA TRACON (SMA)
10:29AM 39.3281 -75.6158 31° Northeast 291 335 9,500 -1,500 Descending FAA TRACON SMA TRACON (SMA)
10:29AM 39.3489 -75.5978 34° Northeast 291 335 8,900 -2,400 Descending FAA TRACON SMA TRACON (SMA)
10:30AM 39.3758 -75.5747 33° Northeast 298 343 7,900 -2,160 Descending FAA TRACON SMA TRACON (SMA)
10:30AM 39.3942 -75.5542 41° Northeast 300 345 7,500 -1,200 Descending FAA TRACON SMA TRACON (SMA)
10:30AM 39.4161 -75.5206 50° Northeast 296 341 7,100 -780 Descending FAA TRACON SMA TRACON (SMA)
10:31AM 39.4333 -75.4961 48° Northeast 298 343 7,000 -180 Descending FAA TRACON SMA TRACON (SMA)
10:31AM 39.4508 -75.4711 48° Northeast 301 346 7,000  Level FAA TRACON SMA TRACON (SMA)
10:31AM 39.4719 -75.4400 49° Northeast 300 345 7,000  Level FAA TRACON SMA TRACON (SMA)
10:32AM 39.4889 -75.4156 48° Northeast 298 343 7,000  Level FAA TRACON SMA TRACON (SMA)
10:32AM 39.5119 -75.4019 24° Northeast 295 339 7,000 -780 Level FAA TRACON SMA TRACON (SMA)
10:32AM 39.5431 -75.3936 12° North 296 341 6,500 -1,380 Descending FAA TRACON SMA TRACON (SMA)
10:33AM 39.5675 -75.3878 10° North 293 337 6,100 -780 Descending FAA TRACON SMA TRACON (SMA)
10:33AM 39.5908 -75.3817 11° North 292 336 6,000 -180 Descending FAA TRACON SMA TRACON (SMA)
10:33AM 39.6206 -75.3742 11° North 264 304 6,000  Level FAA TRACON SMA TRACON (SMA)
10:34AM 39.6414 -75.3694 10° North 246 283 6,000  Level FAA TRACON SMA TRACON (SMA)
10:34AM 39.6608 -75.3736 351° North 229 264 6,000  Level FAA TRACON SMA TRACON (SMA)
10:34AM 39.6839 -75.3822 344° North 222 255 6,000  Level FAA TRACON SMA TRACON (SMA)
10:35AM 39.7022 -75.3892 344° North 222 255 6,000  Level FAA TRACON SMA TRACON (SMA)
10:35AM 39.7161 -75.4033 322° Northwest 205 236 6,000  Level FAA TRACON SMA TRACON (SMA)
10:35AM 39.7183 -75.4289 276° West 189 217 6,000 -180 Level FAA TRACON SMA TRACON (SMA)
10:36AM 39.7161 -75.4503 262° West 188 216 5,900 -900 Descending FAA TRACON SMA TRACON (SMA)
10:36AM 39.7144 -75.4703 264° West 184 212 5,400 -1,380 Descending FAA TRACON SMA TRACON (SMA)
10:36AM 39.7122 -75.4958 264° West 186 214 5,000 -600 Descending FAA TRACON SMA TRACON (SMA)
10:37AM 39.7108 -75.5158 265° West 179 206 5,000  Level FAA TRACON SMA TRACON (SMA)
10:37AM 39.7097 -75.5342 266° West 172 198 5,000 -180 Level FAA TRACON SMA TRACON (SMA)
10:37AM 39.7133 -75.5569 282° West 191 220 4,900 -600 Descending FAA TRACON SMA TRACON (SMA)
10:38AM 39.7294 -75.5667 335° Northwest 203 234 4,600 -1,080 Descending FAA TRACON SMA TRACON (SMA)
10:38AM 39.7469 -75.5692 354° North 210 242 4,200 -780 Descending FAA TRACON SMA TRACON (SMA)
10:38AM 39.7642 -75.5714 354° North 201 231 4,100 -600 Descending FAA TRACON SMA TRACON (SMA)
10:39AM 39.7981 -75.5506 25° Northeast 206 237 3,600 -900 Descending FAA TRACON SMA TRACON (SMA)
10:39AM 39.8086 -75.5303 56° Northeast 205 236 3,200 -780 Descending FAA TRACON SMA TRACON (SMA)
10:40AM 39.8142 -75.5047 74° East 192 221 3,100 -180 Descending FAA TRACON SMA TRACON (SMA)
10:40AM 39.8189 -75.4842 73° East 194 223 3,100 -180 Level FAA TRACON SMA TRACON (SMA)
10:40AM 39.8228 -75.4633 76° East 193 222 3,000 -780 Descending FAA TRACON SMA TRACON (SMA)
10:41AM 39.8283 -75.4369 75° East 194 223 2,600 -1,080 Descending FAA TRACON SMA TRACON (SMA)
10:41AM 39.8322 -75.4167 76° East 194 223 2,300 -900 Descending FAA TRACON SMA TRACON (SMA)